sensor_id;sensor_type;location;lat;lon;timestamp;temperature;humidity
40059;SHT31;25763;49.972;8.568;2023-08-06T00:01:14;16.47;84.57
40059;SHT31;25763;49.972;8.568;2023-08-06T00:03:39;16.39;84.80
40059;SHT31;25763;49.972;8.568;2023-08-06T00:06:05;16.36;84.95
40059;SHT31;25763;49.972;8.568;2023-08-06T00:08:31;16.39;84.91
40059;SHT31;25763;49.972;8.568;2023-08-06T00:10:56;16.32;85.10
40059;SHT31;25763;49.972;8.568;2023-08-06T00:13:22;16.33;85.15
40059;SHT31;25763;49.972;8.568;2023-08-06T00:15:47;16.36;84.95
40059;SHT31;25763;49.972;8.568;2023-08-06T00:18:13;16.35;85.12
40059;SHT31;25763;49.972;8.568;2023-08-06T00:20:39;16.32;85.29
40059;SHT31;25763;49.972;8.568;2023-08-06T00:23:05;16.36;85.35
40059;SHT31;25763;49.972;8.568;2023-08-06T00:25:31;16.35;85.33
40059;SHT31;25763;49.972;8.568;2023-08-06T00:27:56;16.32;85.44
40059;SHT31;25763;49.972;8.568;2023-08-06T00:30:22;16.28;85.61
40059;SHT31;25763;49.972;8.568;2023-08-06T00:32:47;16.25;85.85
40059;SHT31;25763;49.972;8.568;2023-08-06T00:35:12;16.26;85.84
40059;SHT31;25763;49.972;8.568;2023-08-06T00:37:38;16.20;86.16
40059;SHT31;25763;49.972;8.568;2023-08-06T00:40:05;16.18;86.28
40059;SHT31;25763;49.972;8.568;2023-08-06T00:42:31;16.25;86.09
40059;SHT31;25763;49.972;8.568;2023-08-06T00:44:56;16.21;86.22
40059;SHT31;25763;49.972;8.568;2023-08-06T00:47:22;16.20;86.32
40059;SHT31;25763;49.972;8.568;2023-08-06T00:49:47;16.25;86.18
40059;SHT31;25763;49.972;8.568;2023-08-06T00:52:13;16.25;86.25
40059;SHT31;25763;49.972;8.568;2023-08-06T00:54:39;16.26;86.22
40059;SHT31;25763;49.972;8.568;2023-08-06T00:57:07;16.26;86.17
40059;SHT31;25763;49.972;8.568;2023-08-06T00:59:33;16.17;86.29
40059;SHT31;25763;49.972;8.568;2023-08-06T01:01:59;16.20;86.34
40059;SHT31;25763;49.972;8.568;2023-08-06T01:04:25;16.22;86.18
40059;SHT31;25763;49.972;8.568;2023-08-06T01:12:38;16.22;86.25
40059;SHT31;25763;49.972;8.568;2023-08-06T01:15:28;16.25;86.19
40059;SHT31;25763;49.972;8.568;2023-08-06T01:17:52;16.21;86.15
40059;SHT31;25763;49.972;8.568;2023-08-06T01:20:18;16.25;86.09
40059;SHT31;25763;49.972;8.568;2023-08-06T01:22:44;16.28;86.13
40059;SHT31;25763;49.972;8.568;2023-08-06T01:25:09;16.25;86.19
40059;SHT31;25763;49.972;8.568;2023-08-06T01:30:15;16.28;86.16
40059;SHT31;25763;49.972;8.568;2023-08-06T01:32:47;16.33;86.01
40059;SHT31;25763;49.972;8.568;2023-08-06T01:35:15;16.30;85.94
40059;SHT31;25763;49.972;8.568;2023-08-06T01:37:41;16.35;85.82
40059;SHT31;25763;49.972;8.568;2023-08-06T01:40:13;16.28;85.70
40059;SHT31;25763;49.972;8.568;2023-08-06T01:42:39;16.33;85.59
40059;SHT31;25763;49.972;8.568;2023-08-06T01:45:06;16.36;85.44
40059;SHT31;25763;49.972;8.568;2023-08-06T01:47:32;16.38;85.39
40059;SHT31;25763;49.972;8.568;2023-08-06T01:49:57;16.40;85.31
40059;SHT31;25763;49.972;8.568;2023-08-06T01:52:23;16.40;85.26
40059;SHT31;25763;49.972;8.568;2023-08-06T01:54:48;16.45;85.06
40059;SHT31;25763;49.972;8.568;2023-08-06T01:57:13;16.47;84.84
40059;SHT31;25763;49.972;8.568;2023-08-06T01:59:39;16.45;84.80
40059;SHT31;25763;49.972;8.568;2023-08-06T02:02:04;16.50;84.56
40059;SHT31;25763;49.972;8.568;2023-08-06T02:04:29;16.49;84.34
40059;SHT31;25763;49.972;8.568;2023-08-06T02:06:55;16.47;84.31
40059;SHT31;25763;49.972;8.568;2023-08-06T02:09:20;16.50;84.25
40059;SHT31;25763;49.972;8.568;2023-08-06T02:11:45;16.49;84.15
40059;SHT31;25763;49.972;8.568;2023-08-06T02:14:11;16.46;84.07
40059;SHT31;25763;49.972;8.568;2023-08-06T02:16:37;16.50;84.08
40059;SHT31;25763;49.972;8.568;2023-08-06T02:19:03;16.56;83.90
40059;SHT31;25763;49.972;8.568;2023-08-06T02:21:28;16.53;83.74
40059;SHT31;25763;49.972;8.568;2023-08-06T02:23:53;16.46;83.61
40059;SHT31;25763;49.972;8.568;2023-08-06T02:26:19;16.50;83.65
40059;SHT31;25763;49.972;8.568;2023-08-06T02:28:44;16.45;83.40
40059;SHT31;25763;49.972;8.568;2023-08-06T02:31:09;16.53;83.50
40059;SHT31;25763;49.972;8.568;2023-08-06T02:33:35;16.55;83.44
40059;SHT31;25763;49.972;8.568;2023-08-06T02:36:04;16.53;83.31
40059;SHT31;25763;49.972;8.568;2023-08-06T02:38:30;16.59;83.30
40059;SHT31;25763;49.972;8.568;2023-08-06T02:40:55;16.53;83.21
40059;SHT31;25763;49.972;8.568;2023-08-06T02:43:21;16.50;83.15
40059;SHT31;25763;49.972;8.568;2023-08-06T02:45:46;16.42;82.90
40059;SHT31;25763;49.972;8.568;2023-08-06T02:48:11;16.47;83.07
40059;SHT31;25763;49.972;8.568;2023-08-06T02:50:41;16.50;82.96
40059;SHT31;25763;49.972;8.568;2023-08-06T02:53:07;16.52;83.02
40059;SHT31;25763;49.972;8.568;2023-08-06T02:55:34;16.49;83.00
40059;SHT31;25763;49.972;8.568;2023-08-06T02:58:00;16.50;82.93
40059;SHT31;25763;49.972;8.568;2023-08-06T03:00:26;16.53;82.90
40059;SHT31;25763;49.972;8.568;2023-08-06T03:02:52;16.59;82.91
40059;SHT31;25763;49.972;8.568;2023-08-06T03:05:18;16.55;82.97
40059;SHT31;25763;49.972;8.568;2023-08-06T03:07:43;16.55;82.97
40059;SHT31;25763;49.972;8.568;2023-08-06T03:10:09;16.56;82.88
40059;SHT31;25763;49.972;8.568;2023-08-06T03:12:34;16.53;82.88
40059;SHT31;25763;49.972;8.568;2023-08-06T03:14:59;16.55;82.88
40059;SHT31;25763;49.972;8.568;2023-08-06T03:17:25;16.45;82.76
40059;SHT31;25763;49.972;8.568;2023-08-06T03:19:50;16.36;82.93
40059;SHT31;25763;49.972;8.568;2023-08-06T03:22:15;16.35;83.11
40059;SHT31;25763;49.972;8.568;2023-08-06T03:24:41;16.32;83.10
40059;SHT31;25763;49.972;8.568;2023-08-06T03:27:06;16.28;82.94
40059;SHT31;25763;49.972;8.568;2023-08-06T03:29:32;16.26;82.88
40059;SHT31;25763;49.972;8.568;2023-08-06T03:31:57;16.25;82.74
40059;SHT31;25763;49.972;8.568;2023-08-06T03:34:25;16.30;82.92
40059;SHT31;25763;49.972;8.568;2023-08-06T03:36:50;16.11;83.63
40059;SHT31;25763;49.972;8.568;2023-08-06T03:39:16;15.90;84.79
40059;SHT31;25763;49.972;8.568;2023-08-06T03:41:41;15.83;84.47
40059;SHT31;25763;49.972;8.568;2023-08-06T03:44:06;16.01;85.12
40059;SHT31;25763;49.972;8.568;2023-08-06T03:46:32;16.08;84.89
40059;SHT31;25763;49.972;8.568;2023-08-06T03:49:00;16.08;84.12
40059;SHT31;25763;49.972;8.568;2023-08-06T03:51:26;16.15;83.48
40059;SHT31;25763;49.972;8.568;2023-08-06T03:53:51;16.15;83.03
40059;SHT31;25763;49.972;8.568;2023-08-06T03:56:17;16.11;83.16
40059;SHT31;25763;49.972;8.568;2023-08-06T03:58:42;16.01;83.28
40059;SHT31;25763;49.972;8.568;2023-08-06T04:01:07;15.97;83.39
40059;SHT31;25763;49.972;8.568;2023-08-06T04:03:33;15.93;83.47
40059;SHT31;25763;49.972;8.568;2023-08-06T04:05:59;16.00;83.53
40059;SHT31;25763;49.972;8.568;2023-08-06T04:08:24;16.00;83.51
40059;SHT31;25763;49.972;8.568;2023-08-06T04:10:52;16.03;83.50
40059;SHT31;25763;49.972;8.568;2023-08-06T04:13:17;16.05;83.48
40059;SHT31;25763;49.972;8.568;2023-08-06T04:15:43;16.05;83.48
40059;SHT31;25763;49.972;8.568;2023-08-06T04:18:08;16.08;83.53
40059;SHT31;25763;49.972;8.568;2023-08-06T04:20:33;16.08;83.55
40059;SHT31;25763;49.972;8.568;2023-08-06T04:22:59;16.04;83.86
40059;SHT31;25763;49.972;8.568;2023-08-06T04:25:24;16.01;83.88
40059;SHT31;25763;49.972;8.568;2023-08-06T04:27:50;16.10;84.01
40059;SHT31;25763;49.972;8.568;2023-08-06T04:30:15;16.05;84.05
40059;SHT31;25763;49.972;8.568;2023-08-06T04:32:40;15.98;84.12
40059;SHT31;25763;49.972;8.568;2023-08-06T04:35:06;16.03;84.27
40059;SHT31;25763;49.972;8.568;2023-08-06T04:37:31;16.01;84.24
40059;SHT31;25763;49.972;8.568;2023-08-06T04:39:57;15.97;84.59
40059;SHT31;25763;49.972;8.568;2023-08-06T04:42:22;15.90;84.84
40059;SHT31;25763;49.972;8.568;2023-08-06T04:44:47;16.01;84.89
40059;SHT31;25763;49.972;8.568;2023-08-06T04:47:13;15.96;85.14
40059;SHT31;25763;49.972;8.568;2023-08-06T04:49:38;15.88;85.47
40059;SHT31;25763;49.972;8.568;2023-08-06T04:52:04;15.79;85.92
40059;SHT31;25763;49.972;8.568;2023-08-06T04:54:29;15.73;86.31
40059;SHT31;25763;49.972;8.568;2023-08-06T04:56:55;15.74;86.35
40059;SHT31;25763;49.972;8.568;2023-08-06T04:59:20;15.84;86.21
40059;SHT31;25763;49.972;8.568;2023-08-06T05:01:45;15.79;86.32
40059;SHT31;25763;49.972;8.568;2023-08-06T05:04:11;15.76;86.44
40059;SHT31;25763;49.972;8.568;2023-08-06T05:06:36;15.65;86.97
40059;SHT31;25763;49.972;8.568;2023-08-06T05:09:03;15.66;86.91
40059;SHT31;25763;49.972;8.568;2023-08-06T05:11:29;15.71;86.98
40059;SHT31;25763;49.972;8.568;2023-08-06T05:13:55;15.73;87.01
40059;SHT31;25763;49.972;8.568;2023-08-06T05:16:20;15.77;86.90
40059;SHT31;25763;49.972;8.568;2023-08-06T05:18:46;15.73;86.83
40059;SHT31;25763;49.972;8.568;2023-08-06T05:21:11;15.73;87.04
40059;SHT31;25763;49.972;8.568;2023-08-06T05:23:37;15.69;87.18
40059;SHT31;25763;49.972;8.568;2023-08-06T05:26:02;15.79;87.09
40059;SHT31;25763;49.972;8.568;2023-08-06T05:28:27;15.77;87.04
40059;SHT31;25763;49.972;8.568;2023-08-06T05:30:53;15.79;87.19
40059;SHT31;25763;49.972;8.568;2023-08-06T05:33:18;15.81;87.14
40059;SHT31;25763;49.972;8.568;2023-08-06T05:35:44;15.80;87.28
40059;SHT31;25763;49.972;8.568;2023-08-06T05:38:09;15.83;87.22
40059;SHT31;25763;49.972;8.568;2023-08-06T05:40:34;15.84;87.03
40059;SHT31;25763;49.972;8.568;2023-08-06T05:43:00;15.81;86.97
40059;SHT31;25763;49.972;8.568;2023-08-06T05:45:25;15.83;87.00
40059;SHT31;25763;49.972;8.568;2023-08-06T05:47:51;15.67;87.08
40059;SHT31;25763;49.972;8.568;2023-08-06T05:50:16;15.76;87.02
40059;SHT31;25763;49.972;8.568;2023-08-06T05:52:41;15.74;86.82
40059;SHT31;25763;49.972;8.568;2023-08-06T05:55:07;15.66;86.84
40059;SHT31;25763;49.972;8.568;2023-08-06T05:57:33;15.70;86.93
40059;SHT31;25763;49.972;8.568;2023-08-06T05:59:58;15.73;86.84
40059;SHT31;25763;49.972;8.568;2023-08-06T06:02:23;15.70;86.84
40059;SHT31;25763;49.972;8.568;2023-08-06T06:04:49;15.76;86.83
40059;SHT31;25763;49.972;8.568;2023-08-06T06:07:14;15.86;86.69
40059;SHT31;25763;49.972;8.568;2023-08-06T06:09:40;15.80;86.59
40059;SHT31;25763;49.972;8.568;2023-08-06T06:12:06;15.87;86.61
40059;SHT31;25763;49.972;8.568;2023-08-06T06:14:31;15.93;86.68
40059;SHT31;25763;49.972;8.568;2023-08-06T06:16:59;15.94;86.70
40059;SHT31;25763;49.972;8.568;2023-08-06T06:19:25;15.84;86.81
40059;SHT31;25763;49.972;8.568;2023-08-06T06:21:50;15.94;86.82
40059;SHT31;25763;49.972;8.568;2023-08-06T06:24:18;15.96;86.79
40059;SHT31;25763;49.972;8.568;2023-08-06T06:26:43;16.05;86.64
40059;SHT31;25763;49.972;8.568;2023-08-06T06:29:09;15.90;86.98
40059;SHT31;25763;49.972;8.568;2023-08-06T06:31:34;15.90;87.06
40059;SHT31;25763;49.972;8.568;2023-08-06T06:34:00;15.79;87.20
40059;SHT31;25763;49.972;8.568;2023-08-06T06:36:25;15.94;87.17
40059;SHT31;25763;49.972;8.568;2023-08-06T06:38:51;16.05;86.97
40059;SHT31;25763;49.972;8.568;2023-08-06T06:41:16;16.01;86.88
40059;SHT31;25763;49.972;8.568;2023-08-06T06:43:42;15.97;86.82
40059;SHT31;25763;49.972;8.568;2023-08-06T06:46:07;16.01;86.96
40059;SHT31;25763;49.972;8.568;2023-08-06T06:48:33;15.96;87.07
40059;SHT31;25763;49.972;8.568;2023-08-06T06:50:59;15.86;87.04
40059;SHT31;25763;49.972;8.568;2023-08-06T06:53:24;15.98;87.08
40059;SHT31;25763;49.972;8.568;2023-08-06T06:55:56;15.97;87.03
40059;SHT31;25763;49.972;8.568;2023-08-06T06:58:22;16.08;87.08
40059;SHT31;25763;49.972;8.568;2023-08-06T07:00:48;16.08;86.63
40059;SHT31;25763;49.972;8.568;2023-08-06T07:03:14;16.08;86.59
40059;SHT31;25763;49.972;8.568;2023-08-06T07:05:40;16.12;86.63
40059;SHT31;25763;49.972;8.568;2023-08-06T07:08:05;16.17;86.72
40059;SHT31;25763;49.972;8.568;2023-08-06T07:10:31;16.18;86.65
40059;SHT31;25763;49.972;8.568;2023-08-06T07:12:56;16.18;86.59
40059;SHT31;25763;49.972;8.568;2023-08-06T07:15:21;16.21;86.53
40059;SHT31;25763;49.972;8.568;2023-08-06T07:17:47;16.08;86.62
40059;SHT31;25763;49.972;8.568;2023-08-06T07:20:12;16.22;86.39
40059;SHT31;25763;49.972;8.568;2023-08-06T07:22:38;16.18;86.21
40059;SHT31;25763;49.972;8.568;2023-08-06T07:25:03;16.00;86.41
40059;SHT31;25763;49.972;8.568;2023-08-06T07:27:29;15.96;86.69
40059;SHT31;25763;49.972;8.568;2023-08-06T07:29:54;16.10;86.52
40059;SHT31;25763;49.972;8.568;2023-08-06T07:32:19;16.12;86.46
40059;SHT31;25763;49.972;8.568;2023-08-06T07:34:45;16.00;86.58
40059;SHT31;25763;49.972;8.568;2023-08-06T07:37:10;16.00;86.61
40059;SHT31;25763;49.972;8.568;2023-08-06T07:39:36;16.07;86.67
40059;SHT31;25763;49.972;8.568;2023-08-06T07:42:03;15.98;86.36
40059;SHT31;25763;49.972;8.568;2023-08-06T07:44:31;16.00;86.72
40059;SHT31;25763;49.972;8.568;2023-08-06T07:46:56;16.10;86.68
40059;SHT31;25763;49.972;8.568;2023-08-06T07:49:22;16.14;86.63
40059;SHT31;25763;49.972;8.568;2023-08-06T07:51:47;16.11;86.63
40059;SHT31;25763;49.972;8.568;2023-08-06T07:54:12;16.12;86.55
40059;SHT31;25763;49.972;8.568;2023-08-06T07:56:38;16.00;86.53
40059;SHT31;25763;49.972;8.568;2023-08-06T07:59:03;15.98;86.77
40059;SHT31;25763;49.972;8.568;2023-08-06T08:01:28;16.07;86.71
40059;SHT31;25763;49.972;8.568;2023-08-06T08:03:54;16.14;86.63
40059;SHT31;25763;49.972;8.568;2023-08-06T08:06:19;16.24;86.61
40059;SHT31;25763;49.972;8.568;2023-08-06T08:08:44;16.38;86.46
40059;SHT31;25763;49.972;8.568;2023-08-06T08:11:10;16.56;86.59
40059;SHT31;25763;49.972;8.568;2023-08-06T08:13:35;16.94;86.60
40059;SHT31;25763;49.972;8.568;2023-08-06T08:16:01;17.18;86.26
40059;SHT31;25763;49.972;8.568;2023-08-06T08:18:27;17.23;85.57
40059;SHT31;25763;49.972;8.568;2023-08-06T08:20:52;17.50;85.24
40059;SHT31;25763;49.972;8.568;2023-08-06T08:23:18;17.26;84.92
40059;SHT31;25763;49.972;8.568;2023-08-06T08:25:43;17.47;85.01
40059;SHT31;25763;49.972;8.568;2023-08-06T08:28:09;17.61;84.74
40059;SHT31;25763;49.972;8.568;2023-08-06T08:30:34;17.47;84.86
40059;SHT31;25763;49.972;8.568;2023-08-06T08:32:59;17.34;84.63
40059;SHT31;25763;49.972;8.568;2023-08-06T08:35:25;17.60;84.92
40059;SHT31;25763;49.972;8.568;2023-08-06T08:37:51;17.65;84.71
40059;SHT31;25763;49.972;8.568;2023-08-06T08:40:17;17.82;84.21
40059;SHT31;25763;49.972;8.568;2023-08-06T08:42:43;17.71;84.59
40059;SHT31;25763;49.972;8.568;2023-08-06T08:45:15;17.92;84.59
40059;SHT31;25763;49.972;8.568;2023-08-06T08:47:43;18.17;84.26
40059;SHT31;25763;49.972;8.568;2023-08-06T08:50:09;18.47;83.77
40059;SHT31;25763;49.972;8.568;2023-08-06T08:52:39;18.68;83.31
40059;SHT31;25763;49.972;8.568;2023-08-06T08:55:08;18.52;82.20
40059;SHT31;25763;49.972;8.568;2023-08-06T08:57:34;18.28;81.49
40059;SHT31;25763;49.972;8.568;2023-08-06T09:00:02;18.24;82.44
40059;SHT31;25763;49.972;8.568;2023-08-06T09:02:28;17.91;82.95
40059;SHT31;25763;49.972;8.568;2023-08-06T09:04:58;17.85;82.52
40059;SHT31;25763;49.972;8.568;2023-08-06T09:07:27;17.61;82.18
40059;SHT31;25763;49.972;8.568;2023-08-06T09:09:53;17.50;81.34
40059;SHT31;25763;49.972;8.568;2023-08-06T09:12:19;17.53;82.37
40059;SHT31;25763;49.972;8.568;2023-08-06T09:14:44;18.00;82.83
40059;SHT31;25763;49.972;8.568;2023-08-06T09:17:10;18.21;81.61
40059;SHT31;25763;49.972;8.568;2023-08-06T09:19:42;18.30;81.94
40059;SHT31;25763;49.972;8.568;2023-08-06T09:22:11;18.26;80.73
40059;SHT31;25763;49.972;8.568;2023-08-06T09:24:41;18.03;80.56
40059;SHT31;25763;49.972;8.568;2023-08-06T09:27:11;17.84;82.22
40059;SHT31;25763;49.972;8.568;2023-08-06T09:29:39;17.74;82.76
40059;SHT31;25763;49.972;8.568;2023-08-06T09:32:07;17.79;82.75
40059;SHT31;25763;49.972;8.568;2023-08-06T09:34:33;17.92;83.05
40059;SHT31;25763;49.972;8.568;2023-08-06T09:37:03;18.17;83.30
40059;SHT31;25763;49.972;8.568;2023-08-06T09:39:30;18.17;83.19
40059;SHT31;25763;49.972;8.568;2023-08-06T09:41:57;18.18;83.10
40059;SHT31;25763;49.972;8.568;2023-08-06T09:44:24;18.06;82.93
40059;SHT31;25763;49.972;8.568;2023-08-06T09:46:55;18.00;82.11
40059;SHT31;25763;49.972;8.568;2023-08-06T09:49:25;18.13;81.95
40059;SHT31;25763;49.972;8.568;2023-08-06T09:51:52;18.09;81.09
40059;SHT31;25763;49.972;8.568;2023-08-06T09:54:22;18.05;81.12
40059;SHT31;25763;49.972;8.568;2023-08-06T09:56:48;18.02;81.32
40059;SHT31;25763;49.972;8.568;2023-08-06T09:59:13;17.98;81.23
40059;SHT31;25763;49.972;8.568;2023-08-06T10:01:41;18.00;81.68
40059;SHT31;25763;49.972;8.568;2023-08-06T10:04:06;18.12;82.03
40059;SHT31;25763;49.972;8.568;2023-08-06T10:06:41;18.18;81.83
40059;SHT31;25763;49.972;8.568;2023-08-06T10:09:07;18.27;81.80
40059;SHT31;25763;49.972;8.568;2023-08-06T10:11:36;18.40;81.84
40059;SHT31;25763;49.972;8.568;2023-08-06T10:14:28;18.61;81.55
40059;SHT31;25763;49.972;8.568;2023-08-06T10:16:57;18.44;81.25
40059;SHT31;25763;49.972;8.568;2023-08-06T10:19:23;18.34;81.64
40059;SHT31;25763;49.972;8.568;2023-08-06T10:22:12;18.73;81.86
40059;SHT31;25763;49.972;8.568;2023-08-06T10:24:58;18.99;81.72
40059;SHT31;25763;49.972;8.568;2023-08-06T10:30:27;19.41;81.37
40059;SHT31;25763;49.972;8.568;2023-08-06T10:32:54;19.45;79.76
40059;SHT31;25763;49.972;8.568;2023-08-06T10:35:42;19.34;80.12
40059;SHT31;25763;49.972;8.568;2023-08-06T10:38:15;19.12;80.50
40059;SHT31;25763;49.972;8.568;2023-08-06T10:40:47;18.79;80.72
40059;SHT31;25763;49.972;8.568;2023-08-06T10:45:59;18.71;81.21
40059;SHT31;25763;49.972;8.568;2023-08-06T10:48:34;18.76;80.91
40059;SHT31;25763;49.972;8.568;2023-08-06T10:51:00;18.92;81.53
40059;SHT31;25763;49.972;8.568;2023-08-06T10:53:26;18.89;81.30
40059;SHT31;25763;49.972;8.568;2023-08-06T10:55:52;18.93;81.28
40059;SHT31;25763;49.972;8.568;2023-08-06T10:58:17;18.79;80.48
40059;SHT31;25763;49.972;8.568;2023-08-06T11:00:42;18.65;79.74
40059;SHT31;25763;49.972;8.568;2023-08-06T11:03:08;18.71;80.02
40059;SHT31;25763;49.972;8.568;2023-08-06T11:05:34;18.99;80.89
40059;SHT31;25763;49.972;8.568;2023-08-06T11:08:00;19.23;80.19
40059;SHT31;25763;49.972;8.568;2023-08-06T11:10:26;19.26;78.73
40059;SHT31;25763;49.972;8.568;2023-08-06T11:12:51;19.46;79.69
40059;SHT31;25763;49.972;8.568;2023-08-06T11:15:16;19.53;78.71
40059;SHT31;25763;49.972;8.568;2023-08-06T11:17:42;19.24;77.65
40059;SHT31;25763;49.972;8.568;2023-08-06T11:20:08;18.65;77.74
40059;SHT31;25763;49.972;8.568;2023-08-06T11:22:35;18.40;78.21
40059;SHT31;25763;49.972;8.568;2023-08-06T11:25:01;18.14;78.82
40059;SHT31;25763;49.972;8.568;2023-08-06T11:27:27;18.09;80.27
40059;SHT31;25763;49.972;8.568;2023-08-06T11:29:54;17.91;79.98
40059;SHT31;25763;49.972;8.568;2023-08-06T11:32:22;17.89;80.41
40059;SHT31;25763;49.972;8.568;2023-08-06T11:34:47;17.95;80.76
40059;SHT31;25763;49.972;8.568;2023-08-06T11:37:13;18.03;80.16
40059;SHT31;25763;49.972;8.568;2023-08-06T11:39:46;17.96;79.97
40059;SHT31;25763;49.972;8.568;2023-08-06T11:42:11;17.93;80.45
40059;SHT31;25763;49.972;8.568;2023-08-06T11:44:37;17.68;79.93
40059;SHT31;25763;49.972;8.568;2023-08-06T11:47:04;17.53;80.57
40059;SHT31;25763;49.972;8.568;2023-08-06T11:49:38;17.39;80.89
40059;SHT31;25763;49.972;8.568;2023-08-06T11:52:23;17.18;81.44
40059;SHT31;25763;49.972;8.568;2023-08-06T11:55:04;16.92;81.78
40059;SHT31;25763;49.972;8.568;2023-08-06T11:57:33;16.75;82.22
40059;SHT31;25763;49.972;8.568;2023-08-06T12:00:08;16.78;83.13
40059;SHT31;25763;49.972;8.568;2023-08-06T12:02:34;16.85;83.88
40059;SHT31;25763;49.972;8.568;2023-08-06T12:05:04;16.64;83.97
40059;SHT31;25763;49.972;8.568;2023-08-06T12:07:56;16.60;84.23
40059;SHT31;25763;49.972;8.568;2023-08-06T12:10:22;16.59;84.31
40059;SHT31;25763;49.972;8.568;2023-08-06T12:12:48;16.59;84.21
40059;SHT31;25763;49.972;8.568;2023-08-06T12:15:15;16.68;84.76
40059;SHT31;25763;49.972;8.568;2023-08-06T12:17:41;16.49;84.18
40059;SHT31;25763;49.972;8.568;2023-08-06T12:20:07;16.47;84.20
40059;SHT31;25763;49.972;8.568;2023-08-06T12:22:34;16.35;84.27
40059;SHT31;25763;49.972;8.568;2023-08-06T12:25:06;16.45;84.45
40059;SHT31;25763;49.972;8.568;2023-08-06T12:27:37;16.43;84.28
40059;SHT31;25763;49.972;8.568;2023-08-06T12:30:04;16.45;84.04
40059;SHT31;25763;49.972;8.568;2023-08-06T12:32:29;16.50;84.05
40059;SHT31;25763;49.972;8.568;2023-08-06T12:34:55;16.57;83.75
40059;SHT31;25763;49.972;8.568;2023-08-06T12:37:20;16.68;83.73
40059;SHT31;25763;49.972;8.568;2023-08-06T12:39:46;16.74;83.58
40059;SHT31;25763;49.972;8.568;2023-08-06T12:42:11;16.97;83.77
40059;SHT31;25763;49.972;8.568;2023-08-06T12:44:36;16.99;83.29
40059;SHT31;25763;49.972;8.568;2023-08-06T12:47:02;16.94;82.83
40059;SHT31;25763;49.972;8.568;2023-08-06T12:49:28;16.87;82.20
40059;SHT31;25763;49.972;8.568;2023-08-06T12:51:54;16.85;82.69
40059;SHT31;25763;49.972;8.568;2023-08-06T12:54:20;16.71;82.16
40059;SHT31;25763;49.972;8.568;2023-08-06T12:56:47;16.63;81.93
40059;SHT31;25763;49.972;8.568;2023-08-06T12:59:14;16.52;81.55
40059;SHT31;25763;49.972;8.568;2023-08-06T13:01:43;16.50;81.67
40059;SHT31;25763;49.972;8.568;2023-08-06T13:04:09;16.47;81.84
40059;SHT31;25763;49.972;8.568;2023-08-06T13:06:35;16.50;81.70
40059;SHT31;25763;49.972;8.568;2023-08-06T13:09:05;16.52;80.94
40059;SHT31;25763;49.972;8.568;2023-08-06T13:11:32;16.57;81.05
40059;SHT31;25763;49.972;8.568;2023-08-06T13:14:03;16.59;80.48
40059;SHT31;25763;49.972;8.568;2023-08-06T13:16:29;16.52;80.13
40059;SHT31;25763;49.972;8.568;2023-08-06T13:18:55;16.52;80.83
40059;SHT31;25763;49.972;8.568;2023-08-06T13:21:20;16.65;81.55
40059;SHT31;25763;49.972;8.568;2023-08-06T13:23:45;16.57;81.16
40059;SHT31;25763;49.972;8.568;2023-08-06T13:26:11;16.65;82.04
40059;SHT31;25763;49.972;8.568;2023-08-06T13:28:36;16.61;82.08
40059;SHT31;25763;49.972;8.568;2023-08-06T13:31:01;16.36;81.60
40059;SHT31;25763;49.972;8.568;2023-08-06T13:33:27;16.36;81.85
40059;SHT31;25763;49.972;8.568;2023-08-06T13:35:52;16.30;82.03
40059;SHT31;25763;49.972;8.568;2023-08-06T13:38:17;16.30;82.13
40059;SHT31;25763;49.972;8.568;2023-08-06T13:40:43;16.42;82.44
40059;SHT31;25763;49.972;8.568;2023-08-06T13:43:09;16.57;82.84
40059;SHT31;25763;49.972;8.568;2023-08-06T13:45:34;16.59;82.55
40059;SHT31;25763;49.972;8.568;2023-08-06T13:48:00;16.50;82.15
40059;SHT31;25763;49.972;8.568;2023-08-06T13:50:26;16.57;82.63
40059;SHT31;25763;49.972;8.568;2023-08-06T13:52:53;16.53;82.70
40059;SHT31;25763;49.972;8.568;2023-08-06T13:55:19;16.47;82.62
40059;SHT31;25763;49.972;8.568;2023-08-06T13:57:45;16.32;82.47
40059;SHT31;25763;49.972;8.568;2023-08-06T14:00:10;16.30;82.87
40059;SHT31;25763;49.972;8.568;2023-08-06T14:02:36;16.28;83.17
40059;SHT31;25763;49.972;8.568;2023-08-06T14:05:01;16.22;83.18
40059;SHT31;25763;49.972;8.568;2023-08-06T14:07:27;16.25;83.56
40059;SHT31;25763;49.972;8.568;2023-08-06T14:09:52;16.17;83.46
40059;SHT31;25763;49.972;8.568;2023-08-06T14:12:17;16.18;83.41
40059;SHT31;25763;49.972;8.568;2023-08-06T14:14:43;16.11;83.03
40059;SHT31;25763;49.972;8.568;2023-08-06T14:17:08;16.12;83.06
40059;SHT31;25763;49.972;8.568;2023-08-06T14:19:34;16.12;82.72
40059;SHT31;25763;49.972;8.568;2023-08-06T14:21:59;16.11;82.60
40059;SHT31;25763;49.972;8.568;2023-08-06T14:24:25;16.14;82.59
40059;SHT31;25763;49.972;8.568;2023-08-06T14:26:50;16.15;82.22
40059;SHT31;25763;49.972;8.568;2023-08-06T14:29:17;16.25;82.40
40059;SHT31;25763;49.972;8.568;2023-08-06T14:31:42;16.24;81.58
40059;SHT31;25763;49.972;8.568;2023-08-06T14:34:07;16.26;80.87
40059;SHT31;25763;49.972;8.568;2023-08-06T14:36:33;16.38;81.21
40059;SHT31;25763;49.972;8.568;2023-08-06T14:38:58;16.40;81.36
40059;SHT31;25763;49.972;8.568;2023-08-06T14:41:24;16.39;81.51
40059;SHT31;25763;49.972;8.568;2023-08-06T14:43:50;16.40;81.61
40059;SHT31;25763;49.972;8.568;2023-08-06T14:46:15;16.35;81.29
40059;SHT31;25763;49.972;8.568;2023-08-06T14:48:40;16.36;81.21
40059;SHT31;25763;49.972;8.568;2023-08-06T14:51:07;16.43;81.62
40059;SHT31;25763;49.972;8.568;2023-08-06T14:53:33;16.45;81.37
40059;SHT31;25763;49.972;8.568;2023-08-06T14:55:58;16.38;81.33
40059;SHT31;25763;49.972;8.568;2023-08-06T14:58:24;16.28;81.34
40059;SHT31;25763;49.972;8.568;2023-08-06T15:00:49;16.32;81.79
40059;SHT31;25763;49.972;8.568;2023-08-06T15:03:14;16.18;81.10
40059;SHT31;25763;49.972;8.568;2023-08-06T15:05:43;16.24;81.26
40059;SHT31;25763;49.972;8.568;2023-08-06T15:08:09;16.21;81.01
40059;SHT31;25763;49.972;8.568;2023-08-06T15:10:34;16.21;81.38
40059;SHT31;25763;49.972;8.568;2023-08-06T15:12:59;16.17;80.73
40059;SHT31;25763;49.972;8.568;2023-08-06T15:15:26;16.18;80.99
40059;SHT31;25763;49.972;8.568;2023-08-06T15:17:52;16.15;80.28
40059;SHT31;25763;49.972;8.568;2023-08-06T15:20:18;16.17;80.21
40059;SHT31;25763;49.972;8.568;2023-08-06T15:22:43;16.14;80.47
40059;SHT31;25763;49.972;8.568;2023-08-06T15:25:08;16.10;80.25
40059;SHT31;25763;49.972;8.568;2023-08-06T15:27:34;16.15;80.25
40059;SHT31;25763;49.972;8.568;2023-08-06T15:30:00;16.14;80.03
40059;SHT31;25763;49.972;8.568;2023-08-06T15:32:26;16.08;79.70
40059;SHT31;25763;49.972;8.568;2023-08-06T15:34:52;16.14;79.41
40059;SHT31;25763;49.972;8.568;2023-08-06T15:37:18;16.11;78.80
40059;SHT31;25763;49.972;8.568;2023-08-06T15:39:44;16.12;77.99